Time;durP1;ratioP1;P1;durP2;ratioP2;P2;SDS_P1;SDS_P2;PMS_P1;PMS_P2;Temp;Humidity;BMP_temperature;BMP_pressure;BME280_temperature;BME280_humidity;BME280_pressure;Samples;Min_cycle;Max_cycle;Signal;HPM_P1;HPM_P2
2022/05/02 15:36:48;;;;;;;402.27;382.27;;;26.70;87.90;;;;;;5097143;28;20594;-74
2022/05/02 15:39:19;;;;;;;437.93;415.83;;;26.60;85.60;;;;;;5093568;28;20454;-73
2022/05/02 15:41:45;;;;;;;339.77;323.43;;;;;;;;;;5099226;28;20472;-73
2022/05/02 15:44:13;;;;;;;319.50;303.03;;;26.10;86.80;;;;;;5088047;28;20427;-73
2022/05/02 15:46:43;;;;;;;315.43;299.67;;;26.10;87.90;;;;;;5093732;28;20299;-70
2022/05/02 15:49:11;;;;;;;302.20;287.23;;;26.00;88.00;;;;;;5095469;28;20426;-72
2022/05/02 15:52:17;;;;;;;12.60;8.00;;;26.00;87.20;;;;;;5033781;28;20553;-73
2022/05/02 15:54:53;;;;;;;11.30;7.77;;;26.10;88.30;;;;;;5036985;28;20433;-75
2022/05/02 15:57:43;;;;;;;15.70;8.53;;;26.00;87.40;;;;;;5036781;28;20456;-74
2022/05/02 16:00:14;;;;;;;10.87;7.77;;;26.00;85.70;;;;;;5029171;28;20461;-71
2022/05/02 16:02:42;;;;;;;17.20;9.37;;;25.90;88.30;;;;;;5031034;28;20818;-74
2022/05/02 16:05:15;;;;;;;11.43;7.73;;;25.70;86.90;;;;;;5020572;28;20911;-74
2022/05/02 16:10:46;;;;;;;18.97;9.90;;;25.40;88.90;;;;;;5034254;28;20540;-75
2022/05/02 16:13:18;;;;;;;17.23;9.30;;;25.20;88.90;;;;;;5018329;28;20461;-73
2022/05/02 16:15:46;;;;;;;15.10;8.50;;;25.10;86.60;;;;;;5036677;28;20425;-75
2022/05/02 16:18:14;;;;;;;13.97;8.10;;;24.80;86.90;;;;;;5024144;28;20484;-74
2022/05/02 16:20:43;;;;;;;23.50;10.93;;;24.60;89.40;;;;;;5032558;28;20521;-74
2022/05/02 16:23:14;;;;;;;14.77;8.70;;;24.50;88.80;;;;;;5033842;28;20530;-74
2022/05/02 16:25:43;;;;;;;11.10;7.40;;;24.40;89.20;;;;;;5036515;28;20417;-72
2022/05/02 16:28:20;;;;;;;15.00;7.67;;;24.50;88.80;;;;;;5026674;28;20470;-73
2022/05/02 16:30:48;;;;;;;18.00;9.70;;;24.80;87.90;;;;;;5026037;28;20511;-75
2022/05/02 16:33:25;;;;;;;8.50;6.13;;;25.00;88.30;;;;;;5032888;28;20425;-75
2022/05/02 16:35:51;;;;;;;12.93;8.57;;;25.50;86.00;;;;;;5031928;28;20432;-75
2022/05/02 16:38:40;;;;;;;10.67;7.57;;;26.10;86.00;;;;;;5039675;28;20945;-74
2022/05/02 16:41:19;;;;;;;13.93;8.27;;;26.50;86.00;;;;;;5021423;28;20441;-73
2022/05/02 16:44:00;;;;;;;13.67;8.83;;;26.90;85.90;;;;;;5020508;28;20430;-75
2022/05/02 16:46:28;;;;;;;12.60;8.47;;;27.30;81.40;;;;;;5030261;28;20428;-71
2022/05/02 16:48:57;;;;;;;20.53;11.33;;;27.70;84.00;;;;;;5034375;28;20425;-77
2022/05/02 16:51:25;;;;;;;22.70;11.80;;;28.00;81.80;;;;;;5028716;28;20473;-75
2022/05/02 16:53:59;;;;;;;18.63;9.73;;;28.10;80.00;;;;;;5031521;28;20792;-74
2022/05/02 16:56:26;;;;;;;15.10;8.60;;;28.40;79.80;;;;;;5025172;28;20426;-75
2022/05/02 16:58:52;;;;;;;22.40;11.63;;;28.60;79.00;;;;;;5020045;28;20862;-76
2022/05/02 17:01:18;;;;;;;12.03;7.93;;;28.40;74.90;;;;;;5041710;28;20445;-75
2022/05/02 17:03:59;;;;;;;17.20;9.60;;;28.20;75.90;;;;;;5036986;28;20431;-75
2022/05/02 17:06:28;;;;;;;22.90;11.70;;;28.10;75.40;;;;;;5009996;28;20569;-75
2022/05/02 17:08:55;;;;;;;22.47;11.93;;;28.00;73.50;;;;;;5018333;28;20430;-73
2022/05/02 17:11:22;;;;;;;12.57;8.17;;;28.00;74.40;;;;;;5026870;28;20466;-74
2022/05/02 17:13:48;;;;;;;15.77;9.80;;;27.80;72.90;;;;;;5018638;28;20468;-74
2022/05/02 17:16:25;;;;;;;20.20;10.03;;;27.60;73.50;;;;;;5018012;28;20440;-74
2022/05/02 17:21:16;;;;;;;7.37;6.73;;;26.90;74.50;;;;;;5094043;28;20731;-74
2022/05/02 17:23:44;;;;;;;8.23;6.80;;;26.70;73.30;;;;;;5080887;28;20426;-73
2022/05/02 17:26:11;;;;;;;7.80;7.00;;;26.40;74.20;;;;;;5070172;28;20435;-76
2022/05/02 17:28:40;;;;;;;8.30;6.30;;;25.90;71.30;;;;;;5077458;28;20514;-77
2022/05/02 17:31:06;;;;;;;7.53;6.73;;;25.30;72.30;;;;;;5075958;28;20702;-76
2022/05/02 17:33:52;;;;;;;8.30;7.07;;;24.80;72.40;;;;;;5079346;28;20442;-76
2022/05/02 17:36:19;;;;;;;8.73;7.63;;;24.30;75.20;;;;;;5076815;28;20595;-76
2022/05/02 17:38:49;;;;;;;10.23;7.43;;;24.10;75.60;;;;;;5079168;28;20427;-75
2022/05/02 17:41:21;;;;;;;11.90;8.63;;;23.80;75.60;;;;;;5080054;28;20431;-76
2022/05/02 17:43:52;;;;;;;15.20;7.97;;;23.60;75.70;;;;;;5077824;28;20433;-76
2022/05/02 17:46:31;;;;;;;22.30;10.80;;;23.40;76.40;;;;;;5078476;28;20979;-75
2022/05/02 17:48:58;;;;;;;12.27;8.10;;;23.20;77.10;;;;;;5069581;28;20443;-75
2022/05/02 17:51:27;;;;;;;18.43;9.40;;;23.00;77.00;;;;;;5066492;28;20972;-75
2022/05/02 17:53:58;;;;;;;16.23;9.00;;;22.80;78.10;;;;;;5069408;28;20427;-75
2022/05/02 17:56:27;;;;;;;14.53;9.13;;;22.70;78.70;;;;;;5072805;28;20425;-75
2022/05/02 17:58:59;;;;;;;18.50;9.60;;;22.40;80.20;;;;;;5065239;28;20503;-74
2022/05/02 18:01:24;;;;;;;16.73;9.03;;;22.20;81.80;;;;;;5081049;28;20828;-75
2022/05/02 18:03:51;;;;;;;18.33;9.70;;;22.10;82.00;;;;;;5080579;28;20427;-76
2022/05/02 18:06:27;;;;;;;18.43;9.63;;;21.90;83.20;;;;;;5075253;28;20238;-75
2022/05/02 18:09:01;;;;;;;15.37;9.17;;;21.70;83.90;;;;;;5067513;28;20422;-75
2022/05/02 18:14:20;;;;;;;15.27;9.90;;;21.40;86.10;;;;;;5075185;28;20508;-74
2022/05/02 18:16:48;;;;;;;18.70;10.17;;;21.20;87.30;;;;;;5070553;28;20944;-75
2022/05/02 18:19:21;;;;;;;11.60;8.07;;;21.10;88.40;;;;;;5084532;28;20883;-74
2022/05/02 18:21:59;;;;;;;14.30;8.63;;;20.90;90.30;;;;;;5098253;28;20439;-73
2022/05/02 18:24:27;;;;;;;24.40;11.90;;;20.80;90.70;;;;;;5086259;28;20433;-73
2022/05/02 18:27:02;;;;;;;24.77;11.43;;;20.60;91.10;;;;;;5082766;28;20751;-71
2022/05/02 18:29:31;;;;;;;20.53;10.47;;;20.40;91.60;;;;;;5067749;28;20420;-73
2022/05/02 18:32:03;;;;;;;23.93;12.40;;;20.30;92.10;;;;;;5060369;28;20835;-72
2022/05/02 18:37:22;;;;;;;18.90;12.17;;;19.80;92.70;;;;;;5073360;28;20863;-73
2022/05/02 18:39:52;;;;;;;17.73;14.20;;;19.50;93.20;;;;;;5083810;28;20558;-73
2022/05/02 18:42:24;;;;;;;18.23;11.10;;;19.50;93.50;;;;;;5076235;28;20460;-73
2022/05/02 18:53:34;;;;;;;23.33;11.97;;;18.60;96.80;;;;;;5082047;28;20434;-75
2022/05/02 18:56:02;;;;;;;25.47;13.00;;;18.50;97.60;;;;;;5083824;28;20435;-73
2022/05/02 18:58:30;;;;;;;30.87;16.20;;;18.40;98.60;;;;;;5080951;28;20471;-73
2022/05/02 19:00:56;;;;;;;17.50;11.13;;;18.20;99.90;;;;;;5088621;28;20474;-74
2022/05/02 19:03:25;;;;;;;26.13;15.13;;;18.00;99.90;;;;;;5082906;28;20443;-73
2022/05/02 19:06:06;;;;;;;13.20;9.53;;;18.00;99.90;;;;;;5074662;28;20434;-74
2022/05/02 19:08:35;;;;;;;23.10;12.93;;;17.90;99.90;;;;;;5079954;28;21024;-71
2022/05/02 19:11:04;;;;;;;14.10;10.23;;;17.60;99.90;;;;;;5084324;28;20507;-75
2022/05/02 19:13:42;;;;;;;18.80;11.30;;;17.60;99.90;;;;;;5087894;28;20423;-76
2022/05/02 19:16:13;;;;;;;17.70;11.07;;;17.50;99.90;;;;;;5090274;28;20511;-74
2022/05/02 19:18:39;;;;;;;24.47;12.97;;;17.40;99.90;;;;;;5060245;28;20432;-75
2022/05/02 19:21:22;;;;;;;21.73;12.93;;;17.20;99.90;;;;;;5059929;28;20472;-76
2022/05/02 19:24:24;;;;;;;23.60;13.10;;;17.10;99.90;;;;;;5058499;28;20185;-73
2022/05/02 19:26:51;;;;;;;25.87;13.10;;;16.90;99.90;;;;;;5061667;28;20431;-75
2022/05/02 19:29:21;;;;;;;33.03;16.17;;;16.80;99.90;;;;;;5061447;28;20519;-77
2022/05/02 19:31:51;;;;;;;26.20;14.57;;;16.60;99.90;;;;;;5061398;28;20451;-76
